Time;durP1;ratioP1;P1;durP2;ratioP2;P2;SDS_P1;SDS_P2;PMS_P1;PMS_P2;Temp;Humidity;BMP_temperature;BMP_pressure;BME280_temperature;BME280_humidity;BME280_pressure;Samples;Min_cycle;Max_cycle;Signal;HPM_P1;HPM_P2
2022/01/21 00:02:01;;;;;;;1.80;0.83;;;17.30;59.00;;;;;;10497168;28;20216;-68
2022/01/21 00:07:23;;;;;;;1.77;1.00;;;17.30;59.10;;;;;;10526839;28;20199;-68
2022/01/21 00:12:51;;;;;;;2.37;1.10;;;17.30;59.20;;;;;;10515953;28;20217;-70
2022/01/21 00:18:13;;;;;;;1.60;0.90;;;17.30;59.10;;;;;;10519146;28;20220;-68
2022/01/21 00:34:56;;;;;;;2.20;0.97;;;17.30;59.20;;;;;;10534395;28;20204;-68
2022/01/21 00:40:22;;;;;;;1.97;1.17;;;17.20;59.20;;;;;;10535634;28;20231;-68
2022/01/21 00:45:46;;;;;;;1.10;0.90;;;17.30;59.20;;;;;;10533605;28;20264;-68
2022/01/21 00:51:08;;;;;;;2.07;0.83;;;17.30;59.20;;;;;;10534189;28;20298;-69
2022/01/21 00:56:30;;;;;;;2.10;0.83;;;17.30;59.30;;;;;;10508953;28;20216;-68
2022/01/21 01:01:54;;;;;;;2.17;1.13;;;17.30;59.20;;;;;;10534618;28;20219;-68
2022/01/21 01:07:16;;;;;;;1.73;1.17;;;17.30;59.60;;;;;;10533701;28;20195;-68
2022/01/21 01:12:52;;;;;;;1.80;1.00;;;17.30;59.10;;;;;;10531507;28;20226;-68
2022/01/21 01:27:36;;;;;;;1.57;0.90;;;17.20;59.10;;;;;;10493818;28;20191;-68
2022/01/21 01:29:47;;;;;;;3.37;0.87;;;17.20;59.20;;;;;;10498778;28;20224;-69
2022/01/21 01:35:14;;;;;;;1.93;0.80;;;17.20;59.20;;;;;;10485636;28;20216;-68
2022/01/21 01:40:41;;;;;;;2.63;1.00;;;17.30;59.20;;;;;;10506687;28;21056;-69
2022/01/21 01:51:45;;;;;;;3.00;1.17;;;17.20;59.20;;;;;;10533602;28;20219;-67
2022/01/21 01:57:07;;;;;;;3.50;1.13;;;17.20;59.20;;;;;;10507771;28;20705;-68
2022/01/21 02:02:29;;;;;;;3.60;1.23;;;17.20;59.20;;;;;;10512548;28;20227;-67
2022/01/21 02:07:53;;;;;;;2.13;1.00;;;17.20;59.20;;;;;;10512611;28;20225;-67
2022/01/21 02:13:21;;;;;;;2.93;0.97;;;17.20;59.20;;;;;;10523911;28;20212;-68
2022/01/21 02:24:34;;;;;;;1.67;0.80;;;17.20;59.00;;;;;;10501908;28;20196;-69
2022/01/21 02:30:02;;;;;;;2.37;0.90;;;17.20;59.20;;;;;;10515261;28;20744;-68
2022/01/21 02:35:25;;;;;;;2.00;1.03;;;17.20;59.30;;;;;;10515960;28;20212;-68
2022/01/21 02:40:48;;;;;;;1.70;0.87;;;17.20;59.30;;;;;;10497938;28;20260;-67
2022/01/21 02:46:10;;;;;;;1.67;0.97;;;17.20;59.20;;;;;;10531339;28;20687;-68
2022/01/21 02:51:32;;;;;;;1.87;0.93;;;17.20;59.20;;;;;;10507770;28;20220;-67
2022/01/21 02:56:56;;;;;;;2.90;1.03;;;17.20;59.10;;;;;;10522831;28;20214;-68
2022/01/21 03:02:18;;;;;;;2.53;1.07;;;17.20;59.20;;;;;;10539680;28;20698;-67
2022/01/21 03:07:40;;;;;;;1.43;0.80;;;17.20;59.30;;;;;;10535765;28;20198;-68
2022/01/21 03:13:04;;;;;;;2.13;1.10;;;17.20;59.30;;;;;;10517247;28;20226;-68
2022/01/21 03:18:26;;;;;;;2.77;1.10;;;17.20;59.30;;;;;;10534028;28;20222;-68
2022/01/21 03:23:50;;;;;;;2.67;1.10;;;17.20;59.30;;;;;;10522713;28;20189;-68
2022/01/21 03:29:14;;;;;;;2.20;0.97;;;17.20;59.30;;;;;;10530531;28;20200;-68
2022/01/21 03:34:36;;;;;;;2.90;1.20;;;17.20;59.30;;;;;;10498796;28;20201;-68
2022/01/21 03:39:58;;;;;;;3.53;1.20;;;17.20;59.20;;;;;;10536822;28;20230;-67
2022/01/21 03:45:22;;;;;;;2.20;0.83;;;17.20;59.30;;;;;;10524656;28;20204;-68
2022/01/21 03:50:45;;;;;;;2.67;0.87;;;17.20;59.50;;;;;;10537148;28;20718;-68
2022/01/21 03:56:07;;;;;;;2.40;1.00;;;17.20;59.40;;;;;;10524292;28;20208;-68
2022/01/21 04:01:30;;;;;;;2.37;1.00;;;17.20;59.40;;;;;;10500670;28;20573;-68
2022/01/21 04:06:53;;;;;;;1.27;0.83;;;17.20;59.50;;;;;;10518589;28;20215;-68
2022/01/21 04:12:15;;;;;;;1.77;1.00;;;17.20;59.30;;;;;;10495599;28;20216;-68
2022/01/21 04:17:38;;;;;;;2.23;0.83;;;17.20;59.40;;;;;;10517806;28;20220;-68
2022/01/21 04:23:00;;;;;;;2.17;1.10;;;17.20;59.40;;;;;;10523686;28;20725;-68
2022/01/21 04:28:24;;;;;;;3.13;1.10;;;17.20;59.40;;;;;;10500409;28;20192;-68
2022/01/21 04:33:47;;;;;;;2.00;0.70;;;17.20;59.50;;;;;;10493157;28;20189;-68
2022/01/21 04:39:15;;;;;;;2.80;0.90;;;17.10;59.50;;;;;;10512683;28;20227;-67
2022/01/21 04:50:18;;;;;;;1.37;0.80;;;17.10;59.50;;;;;;10504945;28;20236;-68
2022/01/21 04:55:40;;;;;;;1.37;0.60;;;17.20;59.50;;;;;;10488667;28;20208;-68
2022/01/21 05:01:05;;;;;;;2.57;1.10;;;17.20;59.60;;;;;;10479499;28;20242;-67
2022/01/21 05:06:28;;;;;;;1.97;0.80;;;17.20;59.60;;;;;;10496182;28;20223;-68
2022/01/21 05:11:52;;;;;;;2.43;1.00;;;17.20;59.60;;;;;;10496410;28;20246;-67
2022/01/21 05:17:15;;;;;;;2.57;0.90;;;17.20;59.50;;;;;;10526687;28;20224;-68
2022/01/21 05:22:39;;;;;;;1.97;0.70;;;17.20;59.60;;;;;;10508219;28;20219;-68
2022/01/21 05:28:01;;;;;;;2.47;1.10;;;17.20;59.60;;;;;;10492268;28;20207;-68
2022/01/21 05:33:23;;;;;;;1.50;0.90;;;17.20;60.20;;;;;;10492446;28;20220;-68
2022/01/21 05:38:47;;;;;;;3.27;0.90;;;17.20;59.70;;;;;;10505611;22;20236;-63
2022/01/21 05:44:14;;;;;;;1.87;1.03;;;17.20;59.70;;;;;;10491639;28;20203;-63
2022/01/21 05:49:38;;;;;;;2.10;0.80;;;17.20;59.70;;;;;;10494540;28;20211;-63
2022/01/21 05:55:01;;;;;;;2.20;0.90;;;17.20;59.70;;;;;;10499990;28;20229;-64
2022/01/21 06:00:24;;;;;;;3.10;0.90;;;17.20;59.80;;;;;;10497331;28;20235;-63
2022/01/21 06:05:46;;;;;;;1.93;0.80;;;17.20;59.70;;;;;;10536635;28;20187;-64
2022/01/21 06:11:09;;;;;;;3.13;1.03;;;17.20;59.70;;;;;;10538415;28;20219;-64
2022/01/21 06:16:33;;;;;;;3.03;1.00;;;17.20;59.80;;;;;;10528201;28;20207;-63
2022/01/21 06:21:56;;;;;;;2.03;0.70;;;17.20;59.70;;;;;;10525779;28;20216;-63
2022/01/21 06:27:25;;;;;;;1.30;0.80;;;17.20;59.70;;;;;;10517555;28;20221;-63
2022/01/21 06:32:48;;;;;;;1.50;0.87;;;17.20;59.90;;;;;;10497213;28;20566;-62
2022/01/21 06:38:10;;;;;;;1.87;0.90;;;17.20;59.90;;;;;;10489602;28;20589;-62
2022/01/21 06:43:33;;;;;;;2.03;0.60;;;17.20;59.90;;;;;;10527744;28;20206;-63
2022/01/21 06:48:55;;;;;;;3.37;0.93;;;17.20;59.90;;;;;;10538459;28;20680;-63
2022/01/21 06:54:18;;;;;;;1.77;0.80;;;17.20;59.90;;;;;;10539351;28;20196;-63
2022/01/21 06:59:41;;;;;;;1.07;0.67;;;17.10;59.90;;;;;;10494948;28;20577;-62
2022/01/21 07:05:04;;;;;;;2.90;1.23;;;17.20;59.90;;;;;;10502785;28;20207;-63
2022/01/21 07:10:29;;;;;;;2.97;1.00;;;17.20;59.70;;;;;;10513132;28;20268;-63
2022/01/21 07:15:53;;;;;;;2.80;1.20;;;17.20;59.10;;;;;;10529542;28;20226;-63
2022/01/21 07:21:15;;;;;;;2.90;0.90;;;17.20;59.50;;;;;;10492864;28;20216;-64
2022/01/21 07:26:37;;;;;;;2.87;1.13;;;17.20;58.90;;;;;;10505267;28;20188;-63
2022/01/21 07:32:01;;;;;;;2.20;0.80;;;17.30;59.70;;;;;;10505838;28;20220;-62
2022/01/21 07:37:24;;;;;;;3.20;1.07;;;17.20;59.10;;;;;;10532057;28;20230;-64
2022/01/21 07:42:46;;;;;;;2.00;0.87;;;17.20;59.30;;;;;;10496486;28;20196;-63
2022/01/21 07:48:10;;;;;;;3.43;0.97;;;17.20;59.40;;;;;;10494223;28;20212;-63
2022/01/21 07:53:32;;;;;;;2.60;1.03;;;17.20;59.50;;;;;;10496366;28;20200;-63
2022/01/21 07:58:54;;;;;;;0.77;0.50;;;17.20;59.50;;;;;;10502739;28;20630;-63
2022/01/21 08:04:18;;;;;;;2.37;1.00;;;17.20;59.60;;;;;;10507071;28;20662;-63
2022/01/21 08:09:40;;;;;;;1.60;0.90;;;17.20;59.70;;;;;;10493173;28;20232;-63
2022/01/21 08:15:02;;;;;;;2.80;0.70;;;17.20;59.60;;;;;;10494656;28;20192;-65
2022/01/21 08:20:26;;;;;;;2.33;1.00;;;17.20;59.70;;;;;;10533675;28;20227;-64
2022/01/21 08:25:48;;;;;;;1.23;0.80;;;17.20;59.80;;;;;;10523476;28;20200;-62
2022/01/21 08:31:10;;;;;;;2.80;0.80;;;17.20;59.80;;;;;;10533118;28;20215;-62
2022/01/21 08:36:33;;;;;;;2.13;1.17;;;17.20;59.80;;;;;;10502666;28;20208;-61
2022/01/21 08:41:56;;;;;;;2.23;0.83;;;17.20;59.90;;;;;;10497439;28;20573;-60
2022/01/21 08:47:20;;;;;;;3.10;0.90;;;17.20;59.90;;;;;;10515260;28;20189;-63
2022/01/21 08:52:44;;;;;;;2.27;0.90;;;17.20;59.90;;;;;;10531495;28;20676;-62
2022/01/21 08:58:06;;;;;;;1.93;1.00;;;17.20;60.00;;;;;;10498533;28;20227;-63
2022/01/21 09:03:28;;;;;;;2.77;0.70;;;17.20;60.00;;;;;;10532570;28;20196;-61
2022/01/21 09:08:52;;;;;;;1.80;0.80;;;17.20;60.10;;;;;;10511501;28;20709;-61
2022/01/21 09:14:14;;;;;;;2.60;0.77;;;17.20;60.10;;;;;;10531894;28;20202;-61
2022/01/21 09:19:36;;;;;;;1.63;0.77;;;17.20;60.20;;;;;;10513140;28;20227;-62
2022/01/21 09:25:00;;;;;;;8.40;1.90;;;17.20;60.30;;;;;;10499955;28;20546;-63
2022/01/21 09:30:22;;;;;;;6.60;1.30;;;17.20;58.40;;;;;;10521943;28;20212;-62
2022/01/21 09:35:44;;;;;;;3.93;1.13;;;17.20;59.30;;;;;;10498932;28;20196;-62
2022/01/21 09:41:09;;;;;;;9.53;1.23;;;17.20;60.40;;;;;;10506816;28;20230;-63
2022/01/21 09:46:35;;;;;;;6.73;1.50;;;17.20;60.00;;;;;;10532762;28;20282;-63
2022/01/21 09:52:00;;;;;;;2.77;0.93;;;17.20;60.00;;;;;;10512192;28;20212;-62
2022/01/21 09:57:24;;;;;;;3.53;1.20;;;17.20;59.90;;;;;;10491960;28;20215;-62
2022/01/21 10:02:48;;;;;;;4.67;1.13;;;17.20;60.10;;;;;;10511920;28;20195;-61
2022/01/21 10:08:10;;;;;;;8.37;1.53;;;17.20;60.20;;;;;;10493054;28;20750;-61
2022/01/21 10:13:35;;;;;;;4.13;1.03;;;17.20;60.30;;;;;;10532618;28;20479;-61
2022/01/21 10:19:02;;;;;;;3.20;1.10;;;17.20;60.30;;;;;;10494202;28;20224;-61
2022/01/21 10:24:25;;;;;;;2.57;0.97;;;17.20;60.40;;;;;;10491247;28;20243;-61
2022/01/21 10:29:48;;;;;;;4.33;1.00;;;17.20;60.50;;;;;;10489305;28;20216;-59
2022/01/21 10:35:20;;;;;;;4.00;1.00;;;17.20;60.50;;;;;;10493279;28;20196;-61
2022/01/21 10:40:43;;;;;;;2.53;0.67;;;17.30;60.70;;;;;;10499154;28;20220;-61
2022/01/21 10:46:07;;;;;;;6.50;1.03;;;17.30;61.20;;;;;;10497094;28;20192;-61
2022/01/21 10:51:31;;;;;;;2.23;1.00;;;17.30;60.60;;;;;;10496713;28;20208;-61
2022/01/21 10:57:08;;;;;;;2.90;0.90;;;17.30;60.60;;;;;;10502031;28;20581;-62
2022/01/21 11:02:39;;;;;;;3.63;1.13;;;17.30;60.40;;;;;;10512980;28;20434;-62
2022/01/21 11:08:06;;;;;;;3.33;1.10;;;17.30;60.60;;;;;;10504560;28;20200;-63
2022/01/21 11:13:33;;;;;;;1.90;0.80;;;17.30;60.50;;;;;;10526715;28;20243;-62
2022/01/21 11:19:06;;;;;;;2.07;0.90;;;17.30;60.50;;;;;;10486770;28;20224;-61
2022/01/21 11:24:29;;;;;;;2.07;0.87;;;17.30;60.60;;;;;;10502163;28;20204;-62
2022/01/21 11:29:52;;;;;;;2.13;0.63;;;17.30;60.60;;;;;;10494790;28;20599;-63
2022/01/21 11:35:16;;;;;;;1.43;0.70;;;17.30;60.50;;;;;;10495958;28;20247;-62
2022/01/21 11:40:39;;;;;;;1.77;0.80;;;17.30;60.50;;;;;;10521825;22;20251;-70
2022/01/21 11:46:20;;;;;;;2.13;0.70;;;17.30;60.50;;;;;;10535397;28;20599;-69
2022/01/21 11:51:43;;;;;;;2.27;0.70;;;17.30;60.50;;;;;;10531363;28;20745;-70
2022/01/21 11:57:06;;;;;;;2.43;0.90;;;17.30;60.50;;;;;;10537634;28;20235;-69
2022/01/21 12:02:30;;;;;;;2.73;0.83;;;17.20;60.40;;;;;;10504731;28;20193;-69
2022/01/21 12:07:53;;;;;;;3.43;0.77;;;17.30;60.40;;;;;;10504111;28;20701;-69
2022/01/21 12:13:19;;;;;;;3.87;0.83;;;17.20;60.40;;;;;;10520644;28;20223;-70
2022/01/21 12:24:54;;;;;;;1.57;0.80;;;17.20;60.20;;;;;;10497698;28;20188;-70
2022/01/21 12:30:26;;;;;;;2.07;0.70;;;17.20;60.40;;;;;;10493589;28;20279;-70
2022/01/21 12:35:55;;;;;;;2.77;1.07;;;17.30;60.80;;;;;;10512416;28;20669;-69
2022/01/21 12:41:33;;;;;;;2.97;1.10;;;17.20;60.50;;;;;;10513549;28;20220;-70
2022/01/21 12:46:55;;;;;;;3.73;0.80;;;17.30;60.30;;;;;;10493419;28;20192;-70
2022/01/21 12:52:30;;;;;;;1.53;0.80;;;17.20;60.50;;;;;;10510781;28;20570;-68
2022/01/21 12:57:55;;;;;;;2.93;0.80;;;17.30;60.60;;;;;;10527041;28;20224;-70
2022/01/21 13:03:23;;;;;;;2.87;0.90;;;17.20;60.40;;;;;;10493454;28;20204;-69
2022/01/21 13:09:02;;;;;;;1.87;0.97;;;17.30;60.60;;;;;;10509597;28;20214;-69
2022/01/21 13:14:34;;;;;;;1.37;0.90;;;17.30;60.70;;;;;;10534828;28;20544;-69
2022/01/21 13:19:57;;;;;;;1.87;0.80;;;17.30;61.00;;;;;;10530546;28;20634;-69
2022/01/21 13:25:22;;;;;;;1.53;0.70;;;17.30;61.10;;;;;;10506111;28;20241;-68
2022/01/21 13:30:45;;;;;;;2.67;1.00;;;17.30;61.10;;;;;;10517685;28;20342;-69
2022/01/21 13:36:08;;;;;;;3.97;1.00;;;17.30;61.10;;;;;;10513595;28;20199;-69
2022/01/21 13:41:31;;;;;;;2.10;1.03;;;17.30;61.20;;;;;;10518035;28;20595;-70
2022/01/21 13:46:56;;;;;;;2.73;0.80;;;17.30;61.20;;;;;;10509424;28;20575;-68
2022/01/21 13:52:18;;;;;;;2.17;1.03;;;17.30;61.30;;;;;;10502868;28;20341;-67
2022/01/21 13:57:45;;;;;;;1.67;1.00;;;17.30;61.40;;;;;;10503074;28;20220;-67
2022/01/21 14:03:15;;;;;;;2.70;0.90;;;17.40;61.40;;;;;;10505216;28;20679;-67
2022/01/21 14:08:40;;;;;;;1.73;0.83;;;17.40;61.30;;;;;;10507145;28;20683;-67
2022/01/21 14:14:06;;;;;;;2.47;1.13;;;17.40;61.30;;;;;;10515241;28;20664;-68
2022/01/21 14:19:29;;;;;;;2.27;0.90;;;17.40;61.40;;;;;;10520991;28;20225;-67
2022/01/21 14:24:53;;;;;;;3.03;1.30;;;17.30;61.50;;;;;;10513649;28;20200;-67
2022/01/21 14:30:17;;;;;;;4.00;1.20;;;17.30;61.60;;;;;;10498537;28;20216;-67
2022/01/21 14:35:45;;;;;;;1.83;0.77;;;17.30;61.70;;;;;;10517678;28;20219;-67
2022/01/21 14:41:17;;;;;;;2.23;0.97;;;17.30;61.80;;;;;;10508603;28;20216;-67
2022/01/21 14:46:39;;;;;;;3.23;1.10;;;17.30;61.90;;;;;;10512376;28;20667;-67
2022/01/21 14:52:33;;;;;;;1.93;1.00;;;17.30;62.20;;;;;;10516179;28;20267;-67
2022/01/21 14:57:49;;;;;;;2.47;0.90;;;17.30;62.20;;;;;;10521892;28;20212;-67
2022/01/21 15:03:14;;;;;;;2.57;1.03;;;17.30;62.30;;;;;;10531089;28;20192;-67
2022/01/21 15:08:43;;;;;;;2.37;1.07;;;17.30;62.40;;;;;;10518734;28;20242;-67
2022/01/21 15:14:26;;;;;;;2.90;1.60;;;17.30;62.30;;;;;;10498284;28;20660;-67
2022/01/21 15:19:50;;;;;;;2.20;1.10;;;17.30;62.10;;;;;;10500196;28;20228;-68
2022/01/21 15:25:13;;;;;;;4.30;1.70;;;17.30;61.80;;;;;;10498488;28;20277;-68
2022/01/21 15:30:36;;;;;;;3.92;1.77;;;17.40;61.20;;;;;;10495260;28;20777;-68
2022/01/21 15:35:58;;;;;;;5.70;1.73;;;17.80;59.70;;;;;;10533723;28;20202;-68
2022/01/21 15:41:22;;;;;;;3.33;1.57;;;17.60;59.80;;;;;;10530285;28;20215;-68
2022/01/21 15:46:44;;;;;;;6.83;1.80;;;17.50;60.00;;;;;;10532782;28;20196;-68
2022/01/21 15:52:08;;;;;;;6.97;1.70;;;17.50;60.10;;;;;;10515061;28;20683;-68
2022/01/21 15:57:32;;;;;;;6.37;1.63;;;17.50;60.60;;;;;;10500434;28;20215;-69
2022/01/21 16:03:00;;;;;;;6.97;1.80;;;17.50;60.80;;;;;;10536678;28;20200;-69
2022/01/21 16:08:22;;;;;;;5.77;1.60;;;17.50;60.60;;;;;;10522053;28;20246;-68
2022/01/21 16:13:46;;;;;;;7.00;1.50;;;17.50;61.00;;;;;;10533151;28;21030;-68
2022/01/21 16:19:09;;;;;;;4.33;1.70;;;17.80;60.10;;;;;;10529532;28;20223;-69
2022/01/21 16:24:31;;;;;;;7.20;1.50;;;17.70;60.40;;;;;;10517853;28;20578;-70
2022/01/21 16:29:55;;;;;;;4.47;1.40;;;17.60;60.80;;;;;;10502029;28;20290;-69
2022/01/21 16:35:17;;;;;;;3.87;1.37;;;17.60;60.90;;;;;;10509869;28;20197;-69
2022/01/21 16:40:40;;;;;;;5.30;2.07;;;17.50;61.00;;;;;;10508870;28;20431;-69
2022/01/21 16:46:03;;;;;;;5.77;1.63;;;18.40;58.90;;;;;;10525386;28;20199;-69
2022/01/21 16:51:32;;;;;;;3.80;1.75;;;17.90;60.50;;;;;;10508415;28;20415;-68
2022/01/21 16:56:56;;;;;;;2.73;1.53;;;18.20;59.80;;;;;;10510449;28;20666;-68
2022/01/21 17:02:19;;;;;;;3.20;1.50;;;17.80;60.60;;;;;;10519858;28;20712;-68
2022/01/21 17:07:42;;;;;;;4.07;1.90;;;17.70;60.90;;;;;;10497167;28;20247;-68
2022/01/21 17:13:04;;;;;;;5.43;1.73;;;17.60;61.00;;;;;;10513608;28;20192;-69
2022/01/21 17:18:27;;;;;;;4.37;1.53;;;17.50;61.00;;;;;;10513855;28;20576;-68
2022/01/21 17:23:49;;;;;;;2.13;1.30;;;17.50;61.20;;;;;;10512595;28;20204;-69
2022/01/21 17:29:12;;;;;;;3.30;1.43;;;17.40;61.20;;;;;;10510864;28;20207;-69
2022/01/21 17:34:36;;;;;;;2.33;1.23;;;17.40;61.30;;;;;;10514434;28;20201;-69
2022/01/21 17:39:59;;;;;;;2.43;1.33;;;17.40;61.40;;;;;;10510349;22;20236;-66
2022/01/21 17:45:22;;;;;;;2.70;1.47;;;17.30;61.40;;;;;;10486275;28;20188;-66
2022/01/21 17:50:46;;;;;;;3.93;1.60;;;17.30;61.40;;;;;;10522345;28;20598;-70
2022/01/21 17:56:08;;;;;;;2.13;1.10;;;17.40;61.50;;;;;;10521971;28;20283;-65
2022/01/21 18:01:30;;;;;;;2.77;1.30;;;17.40;61.60;;;;;;10520926;28;20224;-65
2022/01/21 18:06:54;;;;;;;2.57;1.43;;;17.40;61.70;;;;;;10518823;28;20201;-65
2022/01/21 18:12:16;;;;;;;1.90;1.23;;;17.40;61.80;;;;;;10515794;28;20211;-65
2022/01/21 18:17:38;;;;;;;2.30;1.63;;;17.50;61.80;;;;;;10514608;28;20436;-66
2022/01/21 18:23:01;;;;;;;2.00;1.00;;;17.80;60.70;;;;;;10512650;28;20433;-66
2022/01/21 18:28:25;;;;;;;2.10;1.10;;;17.70;61.20;;;;;;10512050;28;20220;-65
2022/01/21 18:33:47;;;;;;;1.20;0.83;;;17.60;61.40;;;;;;10512032;28;20195;-66
2022/01/21 18:39:13;;;;;;;2.27;1.50;;;17.60;61.40;;;;;;10511931;28;20836;-65
2022/01/21 18:44:35;;;;;;;2.30;1.40;;;18.40;58.60;;;;;;10518990;28;20187;-64
2022/01/21 18:49:58;;;;;;;4.80;1.27;;;17.90;60.40;;;;;;10510147;28;20590;-65
2022/01/21 18:55:23;;;;;;;2.43;1.00;;;18.60;58.80;;;;;;10495463;28;20678;-65
2022/01/21 19:00:46;;;;;;;3.43;1.20;;;17.90;60.50;;;;;;10493299;28;20222;-66
2022/01/21 19:06:08;;;;;;;1.30;0.83;;;17.80;61.30;;;;;;10515491;28;20273;-65
2022/01/21 19:11:32;;;;;;;2.97;1.20;;;17.70;61.50;;;;;;10532766;28;20656;-65
2022/01/21 19:16:54;;;;;;;3.33;1.10;;;17.60;61.60;;;;;;10533311;28;20685;-65
2022/01/21 19:22:17;;;;;;;1.27;0.80;;;17.60;61.70;;;;;;10509522;28;20223;-66
2022/01/21 19:27:41;;;;;;;1.77;1.13;;;17.60;62.30;;;;;;10514709;28;20582;-65
2022/01/21 19:33:04;;;;;;;3.13;1.00;;;17.60;61.80;;;;;;10505155;28;20195;-65
2022/01/21 19:38:27;;;;;;;1.10;0.80;;;17.60;61.90;;;;;;10490564;28;20228;-66
2022/01/21 19:43:50;;;;;;;2.00;1.10;;;17.60;61.90;;;;;;10497866;28;20199;-66
2022/01/21 19:49:13;;;;;;;1.83;0.93;;;17.60;61.90;;;;;;10532528;28;20215;-65
2022/01/21 19:54:35;;;;;;;1.67;0.73;;;17.60;61.90;;;;;;10527380;28;20202;-66
2022/01/21 20:00:06;;;;;;;0.97;0.77;;;17.60;61.90;;;;;;10532485;28;20311;-65
2022/01/21 20:11:18;;;;;;;1.13;0.90;;;17.60;61.90;;;;;;10508907;28;20237;-65
2022/01/21 20:16:42;;;;;;;0.67;0.67;;;17.60;61.90;;;;;;10513713;28;20204;-65
2022/01/21 20:22:05;;;;;;;1.20;0.73;;;17.60;61.90;;;;;;10525653;28;20228;-65
2022/01/21 20:27:29;;;;;;;0.93;0.70;;;17.60;62.00;;;;;;10513804;28;20790;-65
2022/01/21 20:32:55;;;;;;;1.00;0.60;;;17.50;61.90;;;;;;10523420;28;20192;-65
2022/01/21 20:38:20;;;;;;;1.73;0.90;;;17.60;62.00;;;;;;10515703;28;20227;-64
2022/01/21 20:43:42;;;;;;;1.33;0.70;;;17.50;61.90;;;;;;10510625;28;20192;-65
2022/01/21 20:49:06;;;;;;;1.27;0.70;;;17.60;62.00;;;;;;10512546;28;20213;-64
2022/01/21 20:54:28;;;;;;;1.00;0.60;;;17.60;62.00;;;;;;10516280;28;20203;-64
2022/01/21 20:59:50;;;;;;;0.93;0.60;;;17.60;62.00;;;;;;10512545;28;20223;-64
2022/01/21 21:05:14;;;;;;;1.00;0.70;;;17.60;62.00;;;;;;10503010;28;20208;-65
2022/01/21 21:10:37;;;;;;;1.17;0.60;;;17.60;62.00;;;;;;10525369;28;20208;-64
2022/01/21 21:16:02;;;;;;;0.90;0.70;;;17.60;62.10;;;;;;10504442;28;20622;-65
2022/01/21 21:27:18;;;;;;;1.27;0.70;;;17.60;62.10;;;;;;10511284;28;20227;-65
2022/01/21 22:53:06;;;;;;;0.77;0.50;;;17.50;62.30;;;;;;10521406;28;20187;-65
2022/01/21 23:04:13;;;;;;;0.87;0.60;;;17.50;62.30;;;;;;10522403;28;20262;-65
2022/01/21 23:09:37;;;;;;;0.87;0.60;;;17.50;62.30;;;;;;10522349;28;20218;-65
2022/01/21 23:15:06;;;;;;;0.80;0.53;;;17.50;62.30;;;;;;10521383;28;20199;-65
2022/01/21 23:20:30;;;;;;;0.70;0.40;;;17.50;62.30;;;;;;10517201;28;20212;-65
2022/01/21 23:25:57;;;;;;;0.60;0.40;;;17.50;62.30;;;;;;10516541;28;20200;-65
2022/01/21 23:31:19;;;;;;;0.77;0.50;;;17.40;62.20;;;;;;10518571;28;20216;-65
2022/01/21 23:36:48;;;;;;;1.33;0.57;;;17.40;62.30;;;;;;10518379;28;20200;-65
2022/01/21 23:42:13;;;;;;;0.50;0.30;;;17.40;62.30;;;;;;10511284;22;20364;-67
2022/01/21 23:47:35;;;;;;;0.70;0.50;;;17.50;62.40;;;;;;10532129;28;20688;-69
2022/01/21 23:52:59;;;;;;;0.33;0.33;;;17.50;62.40;;;;;;10503579;28;20229;-69
2022/01/21 23:58:22;;;;;;;0.70;0.50;;;17.40;62.30;;;;;;10519554;28;20288;-68
